createdAt,value
2023-03-26T00:02:18.482Z,2.90
2023-03-26T00:04:55.004Z,3.40
2023-03-26T00:07:31.272Z,2.50
2023-03-26T00:10:09.440Z,2.30
2023-03-26T00:12:45.947Z,2.30
2023-03-26T00:15:22.805Z,2.00
2023-03-26T00:18:00.775Z,2.00
2023-03-26T00:20:38.528Z,1.80
2023-03-26T00:23:14.852Z,2.10
2023-03-26T00:25:52.208Z,2.10
2023-03-26T00:28:29.915Z,1.90
2023-03-26T00:31:09.620Z,2.50
2023-03-26T00:33:47.815Z,2.50
2023-03-26T00:36:27.015Z,1.80
2023-03-26T00:39:05.889Z,1.70
2023-03-26T00:41:43.758Z,1.70
2023-03-26T00:44:20.044Z,1.70
2023-03-26T00:46:58.035Z,1.70
2023-03-26T00:49:34.842Z,1.70
2023-03-26T00:52:11.312Z,1.70
2023-03-26T00:54:48.323Z,1.80
2023-03-26T00:57:35.782Z,1.70
2023-03-26T01:06:02.821Z,2.00
2023-03-26T01:08:45.450Z,3.40
2023-03-26T01:11:26.903Z,2.00
2023-03-26T01:14:10.326Z,1.70
2023-03-26T01:16:52.171Z,1.80
2023-03-26T01:19:38.608Z,1.90
2023-03-26T01:22:20.759Z,2.00
2023-03-26T01:24:57.448Z,1.80
2023-03-26T01:27:44.489Z,1.70
2023-03-26T01:30:33.786Z,1.90
2023-03-26T01:33:22.017Z,2.10
2023-03-26T01:36:06.625Z,1.70
2023-03-26T01:39:00.620Z,1.80
2023-03-26T01:41:48.048Z,1.90
2023-03-26T01:44:32.854Z,1.80
2023-03-26T01:47:11.139Z,2.10
2023-03-26T01:49:47.362Z,1.80
2023-03-26T01:52:26.394Z,1.80
2023-03-26T01:55:03.355Z,1.90
2023-03-26T01:57:59.798Z,1.70
2023-03-26T02:00:43.710Z,2.10
2023-03-26T02:03:31.652Z,1.70
2023-03-26T02:06:18.007Z,1.60
2023-03-26T02:09:01.063Z,1.60
2023-03-26T02:11:39.554Z,2.00
2023-03-26T02:14:18.558Z,1.70
2023-03-26T02:16:56.589Z,1.80
2023-03-26T02:19:32.976Z,1.50
2023-03-26T02:22:11.359Z,1.70
2023-03-26T02:24:48.422Z,1.60
2023-03-26T02:27:24.812Z,1.60
2023-03-26T02:30:01.254Z,1.50
2023-03-26T02:32:38.922Z,1.50
2023-03-26T02:35:16.955Z,1.70
2023-03-26T02:37:53.411Z,1.60
2023-03-26T02:40:30.763Z,1.70
2023-03-26T02:43:07.696Z,1.70
2023-03-26T02:45:44.571Z,1.60
2023-03-26T02:49:08.440Z,1.50
2023-03-26T02:51:45.189Z,1.50
2023-03-26T02:54:32.654Z,1.50
2023-03-26T02:57:20.611Z,1.70
2023-03-26T03:00:17.469Z,1.60
2023-03-26T03:03:25.899Z,1.60
2023-03-26T03:06:23.355Z,1.60
2023-03-26T03:09:02.921Z,1.80
2023-03-26T03:11:46.010Z,1.50
2023-03-26T03:14:22.770Z,1.70
2023-03-26T03:16:59.035Z,1.90
2023-03-26T03:19:35.435Z,1.80
2023-03-26T03:22:11.818Z,1.90
2023-03-26T03:24:49.344Z,1.80
2023-03-26T03:27:26.239Z,1.90
2023-03-26T03:30:18.890Z,1.80
2023-03-26T03:32:58.526Z,1.90
2023-03-26T03:35:35.798Z,2.00
2023-03-26T03:38:13.217Z,1.60
2023-03-26T03:40:55.676Z,1.90
2023-03-26T03:43:33.884Z,2.30
2023-03-26T03:46:16.201Z,1.90
2023-03-26T03:48:55.116Z,2.20
2023-03-26T03:51:36.353Z,1.90
2023-03-26T03:54:16.125Z,1.90
2023-03-26T03:56:55.284Z,1.80
2023-03-26T03:59:47.621Z,1.80
2023-03-26T04:02:30.590Z,1.80
2023-03-26T04:05:11.729Z,1.70
2023-03-26T04:07:52.891Z,1.90
2023-03-26T04:10:38.636Z,1.90
2023-03-26T04:13:21.674Z,1.50
2023-03-26T04:16:01.226Z,2.20
2023-03-26T04:18:39.204Z,2.20
2023-03-26T04:21:21.198Z,1.90
2023-03-26T04:23:57.640Z,2.00
2023-03-26T04:26:52.865Z,1.80
2023-03-26T04:32:24.743Z,1.70
2023-03-26T04:35:04.248Z,2.10
2023-03-26T04:37:46.170Z,1.90
2023-03-26T04:40:34.792Z,2.00
2023-03-26T04:43:27.752Z,1.80
2023-03-26T04:46:10.646Z,2.20
2023-03-26T04:48:54.445Z,2.00
2023-03-26T04:51:42.046Z,2.20
2023-03-26T04:54:30.440Z,2.00
2023-03-26T04:57:21.436Z,2.10
2023-03-26T05:00:03.887Z,2.20
2023-03-26T05:02:42.955Z,2.10
2023-03-26T05:05:20.498Z,2.10
2023-03-26T05:07:57.917Z,2.00
2023-03-26T05:10:35.151Z,2.30
2023-03-26T05:13:14.930Z,1.90
2023-03-26T05:15:57.141Z,2.20
2023-03-26T05:18:41.720Z,2.10
2023-03-26T05:21:18.581Z,2.40
2023-03-26T05:23:55.017Z,2.10
2023-03-26T05:26:31.874Z,2.20
2023-03-26T05:29:08.728Z,2.10
2023-03-26T05:31:50.330Z,2.10
2023-03-26T05:34:27.350Z,2.10
2023-03-26T05:37:04.563Z,2.00
2023-03-26T05:40:02.151Z,2.30
2023-03-26T05:43:00.533Z,2.10
2023-03-26T05:46:27.438Z,1.80
2023-03-26T05:49:04.120Z,2.10
2023-03-26T05:51:42.997Z,1.80
2023-03-26T05:55:10.644Z,1.70
2023-03-26T05:58:05.537Z,2.00
2023-03-26T06:01:08.480Z,2.10
2023-03-26T06:04:33.170Z,2.00
2023-03-26T06:07:28.304Z,1.90
2023-03-26T06:10:23.976Z,1.90
2023-03-26T06:13:00.584Z,2.10
2023-03-26T06:15:37.092Z,2.00
2023-03-26T06:18:24.956Z,1.90
2023-03-26T06:21:20.463Z,1.90
2023-03-26T06:24:08.991Z,2.00
2023-03-26T06:26:54.393Z,1.90
2023-03-26T06:29:54.817Z,1.70
2023-03-26T06:32:57.634Z,1.80
2023-03-26T06:35:37.963Z,1.90
2023-03-26T06:38:14.899Z,1.60
2023-03-26T06:40:51.296Z,2.20
2023-03-26T06:43:37.630Z,1.90
2023-03-26T06:46:23.587Z,1.80
2023-03-26T06:49:18.508Z,1.80
2023-03-26T06:52:35.578Z,1.70
2023-03-26T06:55:31.514Z,1.90
2023-03-26T06:58:18.522Z,1.60
2023-03-26T07:01:54.086Z,1.80
2023-03-26T07:05:13.199Z,1.80
2023-03-26T07:08:08.698Z,1.70
2023-03-26T07:11:48.464Z,2.10
2023-03-26T07:15:11.543Z,1.80
2023-03-26T07:17:57.311Z,1.90
2023-03-26T07:20:39.862Z,1.70
2023-03-26T07:23:20.635Z,2.00
2023-03-26T07:27:02.807Z,1.90
2023-03-26T07:29:55.237Z,1.60
2023-03-26T07:33:04.135Z,1.80
2023-03-26T07:36:00.196Z,1.90
2023-03-26T07:39:24.120Z,1.50
2023-03-26T07:43:04.425Z,1.60
2023-03-26T07:45:59.261Z,1.70
2023-03-26T07:48:54.221Z,1.90
2023-03-26T07:52:18.846Z,1.50
2023-03-26T07:55:47.759Z,1.60
2023-03-26T07:59:34.565Z,1.60
2023-03-26T08:03:08.965Z,1.60
2023-03-26T08:06:16.640Z,1.50
2023-03-26T08:09:28.417Z,1.60
2023-03-26T08:12:41.154Z,1.60
2023-03-26T08:15:30.853Z,1.50
2023-03-26T08:18:27.636Z,1.40
2023-03-26T08:21:11.351Z,1.70
2023-03-26T08:24:01.766Z,1.70
2023-03-26T08:26:49.592Z,1.50
2023-03-26T08:29:39.979Z,1.50
2023-03-26T08:32:22.307Z,1.40
2023-03-26T08:35:00.285Z,1.80
2023-03-26T08:37:36.849Z,1.50
2023-03-26T08:40:24.553Z,1.60
2023-03-26T08:43:58.858Z,1.80
2023-03-26T08:47:14.553Z,4.20
2023-03-26T08:50:33.086Z,3.20
2023-03-26T08:54:11.129Z,1.60
2023-03-26T08:57:09.929Z,1.60
2023-03-26T09:00:40.937Z,1.50
2023-03-26T09:04:15.702Z,1.60
2023-03-26T09:07:28.221Z,1.40
2023-03-26T09:11:12.095Z,1.60
2023-03-26T09:14:44.400Z,1.60
2023-03-26T09:18:21.169Z,1.50
2023-03-26T09:22:01.000Z,1.50
2023-03-26T09:28:20.860Z,1.90
2023-03-26T09:31:41.301Z,1.50
2023-03-26T09:34:48.088Z,1.50
2023-03-26T09:37:56.731Z,1.30
2023-03-26T09:40:54.386Z,1.50
2023-03-26T09:44:42.595Z,1.50
2023-03-26T09:48:15.111Z,1.60
2023-03-26T09:54:11.641Z,1.60
2023-03-26T09:57:07.778Z,1.70
2023-03-26T10:00:25.599Z,1.70
2023-03-26T10:03:30.768Z,1.40
2023-03-26T10:06:32.420Z,1.60
2023-03-26T10:09:37.273Z,1.40
2023-03-26T10:12:32.292Z,1.30
2023-03-26T10:15:37.139Z,1.40
2023-03-26T10:18:33.564Z,1.60
2023-03-26T10:21:17.648Z,1.60
2023-03-26T10:24:20.478Z,1.40
2023-03-26T10:27:23.048Z,1.50
2023-03-26T10:30:33.773Z,2.30
2023-03-26T10:33:31.933Z,1.50
2023-03-26T10:36:35.858Z,1.60
2023-03-26T10:39:48.965Z,1.50
2023-03-26T10:43:03.308Z,1.50
2023-03-26T10:46:00.099Z,1.40
2023-03-26T10:49:21.992Z,1.50
2023-03-26T10:52:03.615Z,1.70
2023-03-26T10:54:59.438Z,1.40
2023-03-26T10:57:50.460Z,1.40
2023-03-26T11:00:31.419Z,1.50
2023-03-26T11:03:52.103Z,1.50
2023-03-26T11:06:42.902Z,1.40
2023-03-26T11:09:42.467Z,1.60
2023-03-26T11:12:30.606Z,1.50
2023-03-26T11:15:28.152Z,1.50
2023-03-26T11:18:19.024Z,6.10
2023-03-26T11:21:18.854Z,1.70
2023-03-26T11:24:20.620Z,1.50
2023-03-26T11:27:15.992Z,1.30
2023-03-26T11:30:14.602Z,1.50
2023-03-26T11:32:57.048Z,1.60
2023-03-26T11:35:40.483Z,1.30
2023-03-26T11:38:28.094Z,1.50
2023-03-26T11:41:12.681Z,1.70
2023-03-26T11:44:07.670Z,1.50
2023-03-26T11:46:50.908Z,1.20
2023-03-26T11:49:30.844Z,1.50
2023-03-26T11:52:08.232Z,1.40
2023-03-26T11:54:50.656Z,1.30
2023-03-26T11:57:34.029Z,1.40
2023-03-26T12:00:21.144Z,1.30
2023-03-26T12:03:01.777Z,1.40
2023-03-26T12:05:59.122Z,1.60
2023-03-26T12:08:42.628Z,1.60
2023-03-26T12:11:32.188Z,1.90
2023-03-26T12:14:17.700Z,1.50
2023-03-26T12:17:09.201Z,1.50
2023-03-26T12:19:48.326Z,3.10
2023-03-26T12:22:38.382Z,2.30
2023-03-26T12:25:25.374Z,1.70
2023-03-26T12:28:07.524Z,1.80
2023-03-26T12:30:54.396Z,1.90
2023-03-26T12:33:35.018Z,1.50
2023-03-26T12:36:31.348Z,1.80
2023-03-26T12:40:10.778Z,1.70
2023-03-26T12:44:50.581Z,1.60
2023-03-26T12:45:43.803Z,1.80
2023-03-26T12:48:25.702Z,1.40
2023-03-26T12:51:26.988Z,1.70
2023-03-26T12:54:35.991Z,1.80
2023-03-26T12:57:26.491Z,1.60
2023-03-26T13:00:51.802Z,1.70
2023-03-26T13:03:52.909Z,1.70
2023-03-26T13:06:59.711Z,1.90
2023-03-26T13:10:25.346Z,1.70
2023-03-26T13:13:28.159Z,1.50
2023-03-26T13:16:14.551Z,1.70
2023-03-26T13:19:00.696Z,1.40
2023-03-26T13:21:57.892Z,1.60
2023-03-26T13:24:54.790Z,1.40
2023-03-26T13:27:50.687Z,1.40
2023-03-26T13:30:43.866Z,1.50
2023-03-26T13:33:44.928Z,1.40
2023-03-26T13:36:32.557Z,1.50
2023-03-26T13:39:30.879Z,1.40
2023-03-26T13:42:33.852Z,1.50
2023-03-26T13:45:34.449Z,1.70
2023-03-26T13:48:18.725Z,1.60
2023-03-26T13:51:06.420Z,1.80
2023-03-26T13:53:54.155Z,1.60
2023-03-26T13:56:41.485Z,1.30
2023-03-26T13:59:31.624Z,1.50
2023-03-26T14:02:18.480Z,1.70
2023-03-26T14:05:02.403Z,1.10
2023-03-26T14:07:48.199Z,1.40
2023-03-26T14:10:30.748Z,1.60
2023-03-26T14:13:17.460Z,1.30
2023-03-26T14:16:00.685Z,1.40
2023-03-26T14:18:49.368Z,2.90
2023-03-26T14:21:56.137Z,2.50
2023-03-26T14:25:02.572Z,1.40
2023-03-26T14:28:12.041Z,1.50
2023-03-26T14:31:23.684Z,1.30
2023-03-26T14:34:35.461Z,1.50
2023-03-26T14:37:51.726Z,1.80
2023-03-26T14:40:58.844Z,1.50
2023-03-26T14:44:48.901Z,1.70
2023-03-26T14:47:27.517Z,1.20
2023-03-26T14:51:03.039Z,1.40
2023-03-26T14:53:46.375Z,1.60
2023-03-26T15:01:03.901Z,1.60
2023-03-26T15:04:57.604Z,2.90
2023-03-26T15:08:21.958Z,1.60
2023-03-26T15:11:32.318Z,1.50
2023-03-26T15:14:46.269Z,1.40
2023-03-26T15:18:29.517Z,1.70
2023-03-26T15:22:07.798Z,1.80
2023-03-26T15:26:09.917Z,3.50
2023-03-26T15:29:44.028Z,1.90
2023-03-26T15:33:10.558Z,2.00
2023-03-26T15:36:38.693Z,1.90
2023-03-26T15:40:00.082Z,2.20
2023-03-26T15:42:54.528Z,1.70
2023-03-26T15:45:41.627Z,3.80
2023-03-26T15:48:56.475Z,3.10
2023-03-26T15:51:56.732Z,2.00
2023-03-26T15:54:47.449Z,1.70
2023-03-26T15:57:36.354Z,1.80
2023-03-26T16:00:30.449Z,1.80
2023-03-26T16:03:43.227Z,1.50
2023-03-26T16:06:46.624Z,1.90
2023-03-26T16:09:52.170Z,2.50
2023-03-26T16:12:56.047Z,1.80
2023-03-26T16:15:38.091Z,1.80
2023-03-26T16:18:37.833Z,1.80
2023-03-26T16:21:57.715Z,1.60
2023-03-26T16:24:41.273Z,1.70
2023-03-26T16:27:38.872Z,1.90
2023-03-26T16:30:33.721Z,1.80
2023-03-26T16:33:36.188Z,1.70
2023-03-26T16:36:35.909Z,1.50
2023-03-26T16:39:44.815Z,1.70
2023-03-26T16:42:43.224Z,1.80
2023-03-26T16:45:35.394Z,1.60
2023-03-26T16:48:35.090Z,1.60
2023-03-26T16:51:26.411Z,1.80
2023-03-26T16:54:18.878Z,1.90
2023-03-26T16:57:11.313Z,5.50
2023-03-26T17:00:24.466Z,3.60
2023-03-26T17:03:24.360Z,2.00
2023-03-26T17:06:53.447Z,1.80
2023-03-26T17:09:52.754Z,1.70
2023-03-26T17:12:42.994Z,1.80
2023-03-26T17:15:37.607Z,1.60
2023-03-26T17:18:46.284Z,1.70
2023-03-26T17:21:45.891Z,1.70
2023-03-26T17:24:43.435Z,1.80
2023-03-26T17:28:28.061Z,1.70
2023-03-26T17:31:18.834Z,1.80
2023-03-26T17:33:56.696Z,1.90
2023-03-26T17:36:56.487Z,1.80
2023-03-26T17:40:51.068Z,2.00
2023-03-26T17:43:51.247Z,1.80
2023-03-26T17:46:37.671Z,1.70
2023-03-26T17:49:29.087Z,2.10
2023-03-26T17:52:20.944Z,1.80
2023-03-26T17:55:00.684Z,1.80
2023-03-26T17:57:45.050Z,1.80
2023-03-26T18:00:29.285Z,1.80
2023-03-26T18:03:16.797Z,2.00
2023-03-26T18:05:58.999Z,2.00
2023-03-26T18:12:40.969Z,1.90
2023-03-26T18:15:49.066Z,1.90
2023-03-26T18:18:33.508Z,2.10
2023-03-26T18:21:14.794Z,1.80
2023-03-26T18:23:54.409Z,2.10
2023-03-26T18:26:44.853Z,2.00
2023-03-26T18:29:29.830Z,3.70
2023-03-26T18:32:23.637Z,2.90
2023-03-26T18:35:17.144Z,3.30
2023-03-26T18:37:58.969Z,2.30
2023-03-26T18:40:45.784Z,2.60
2023-03-26T18:43:34.480Z,2.30
2023-03-26T18:46:16.186Z,2.40
2023-03-26T18:48:55.817Z,10.50
2023-03-26T18:51:43.200Z,8.70
2023-03-26T18:54:34.221Z,3.70
2023-03-26T18:57:27.330Z,17.40
2023-03-26T19:00:25.576Z,5.80
2023-03-26T19:03:12.180Z,3.80
2023-03-26T19:05:50.522Z,3.20
2023-03-26T19:08:30.513Z,2.60
2023-03-26T19:11:10.052Z,3.00
2023-03-26T19:13:51.735Z,2.90
2023-03-26T19:19:17.961Z,2.50
2023-03-26T19:21:59.077Z,2.80
2023-03-26T19:24:37.517Z,3.40
2023-03-26T19:27:16.766Z,2.90
2023-03-26T19:29:55.220Z,2.90
2023-03-26T19:32:36.777Z,2.90
2023-03-26T19:35:27.945Z,2.60
2023-03-26T19:38:13.836Z,2.50
2023-03-26T19:40:53.223Z,2.50
2023-03-26T19:53:51.656Z,3.90
2023-03-26T19:58:28.731Z,3.00
2023-03-26T20:03:03.898Z,2.70
2023-03-26T20:07:37.552Z,3.70
2023-03-26T20:36:14.561Z,3.90
2023-03-26T20:41:13.977Z,4.10
2023-03-26T20:50:23.668Z,3.80
2023-03-26T20:58:34.874Z,3.80
2023-03-26T21:01:14.444Z,4.10
2023-03-26T21:03:51.081Z,4.90
2023-03-26T21:06:27.549Z,4.50
2023-03-26T21:09:06.119Z,4.40
2023-03-26T21:12:01.896Z,4.60
2023-03-26T21:14:44.512Z,4.80
2023-03-26T21:17:24.897Z,4.60
2023-03-26T21:20:11.594Z,4.90
2023-03-26T21:22:54.971Z,5.10
2023-03-26T21:25:47.009Z,4.60
2023-03-26T21:28:42.336Z,5.10
2023-03-26T21:31:24.248Z,4.90
2023-03-26T21:34:03.961Z,5.20
2023-03-26T21:36:42.619Z,5.20
2023-03-26T21:39:20.946Z,5.30
2023-03-26T21:42:04.788Z,5.00
2023-03-26T21:44:45.115Z,5.40
2023-03-26T21:47:23.738Z,4.90
2023-03-26T21:50:02.455Z,4.80
2023-03-26T21:52:47.246Z,5.30
2023-03-26T21:55:27.921Z,4.90
2023-03-26T21:58:35.180Z,4.90
2023-03-26T22:01:33.316Z,5.30
2023-03-26T22:04:21.577Z,5.10
2023-03-26T22:07:06.947Z,5.10
2023-03-26T22:09:45.629Z,5.00
2023-03-26T22:12:22.273Z,4.80
2023-03-26T22:14:59.050Z,4.70
2023-03-26T22:17:35.973Z,4.40
2023-03-26T22:20:16.002Z,4.50
2023-03-26T22:22:53.521Z,4.20
2023-03-26T22:25:30.356Z,4.20
2023-03-26T22:28:06.784Z,4.40
2023-03-26T22:30:43.147Z,5.00
2023-03-26T22:33:19.523Z,4.80
2023-03-26T22:35:56.473Z,4.80
2023-03-26T22:38:32.963Z,4.70
2023-03-26T22:41:10.940Z,4.80
2023-03-26T22:43:47.438Z,4.20
2023-03-26T22:46:24.974Z,4.20
2023-03-26T22:49:01.684Z,4.30
2023-03-26T22:51:38.203Z,4.20
2023-03-26T22:54:14.656Z,4.20
2023-03-26T22:56:52.365Z,4.70
2023-03-26T22:59:28.915Z,4.70
2023-03-26T23:02:06.282Z,4.30
2023-03-26T23:04:42.910Z,4.80
2023-03-26T23:07:19.544Z,4.70
2023-03-26T23:09:55.800Z,4.70
2023-03-26T23:12:32.272Z,4.30
2023-03-26T23:15:10.229Z,4.70
2023-03-26T23:17:54.511Z,4.10
2023-03-26T23:20:37.661Z,4.60
2023-03-26T23:23:13.965Z,4.50
2023-03-26T23:25:51.912Z,4.30
2023-03-26T23:28:30.299Z,4.20
2023-03-26T23:31:12.267Z,5.10
2023-03-26T23:33:50.500Z,4.50
2023-03-26T23:36:27.343Z,5.00
2023-03-26T23:39:04.995Z,5.00
2023-03-26T23:41:41.339Z,5.20
2023-03-26T23:44:18.035Z,6.00
2023-03-26T23:46:58.050Z,6.50
2023-03-26T23:49:34.296Z,7.20
2023-03-26T23:52:11.783Z,6.90
2023-03-26T23:54:48.202Z,7.00
2023-03-26T23:57:24.601Z,6.80
